Time;durP1;ratioP1;P1;durP2;ratioP2;P2;SDS_P1;SDS_P2;PMS_P1;PMS_P2;Temp;Humidity;BMP_temperature;BMP_pressure;BME280_temperature;BME280_humidity;BME280_pressure;Samples;Min_cycle;Max_cycle;Signal;HPM_P1;HPM_P2
2021/12/17 00:02:44;;;;;;;;;64.50;53.25;;;;;4.27;100.00;100661.75;4947287;28;8848;-69
2021/12/17 00:05:03;;;;;;;;;74.25;58.25;;;;;4.09;100.00;100658.34;4950964;28;8899;-69
2021/12/17 00:07:35;;;;;;;;;71.75;57.50;;;;;4.23;100.00;100672.72;4950569;28;8873;-69
2021/12/17 00:10:08;;;;;;;;;66.00;52.25;;;;;4.40;98.99;100681.19;4950789;28;9006;-69
2021/12/17 00:12:36;;;;;;;;;68.50;54.25;;;;;4.03;100.00;100678.75;4950381;28;10057;-69
2021/12/17 00:15:08;;;;;;;;;73.25;56.75;;;;;3.88;100.00;100702.16;4950612;28;8881;-69
2021/12/17 00:17:48;;;;;;;;;83.25;62.25;;;;;3.64;100.00;100695.06;4950137;28;8891;-70
2021/12/17 00:20:49;;;;;;;;;76.50;58.25;;;;;3.52;100.00;100704.81;4950365;28;8960;-68
2021/12/17 00:40:32;;;;;;;;;64.00;53.25;;;;;4.25;100.00;100671.13;4991371;28;8983;-71
2021/12/17 00:48:38;;;;;;;;;67.00;53.50;;;;;4.94;99.14;100670.50;5006023;28;8902;-70
2021/12/17 00:54:06;;;;;;;;;63.50;52.25;;;;;5.38;95.93;100673.09;5022379;28;8860;-69
2021/12/17 00:56:37;;;;;;;;;59.00;48.75;;;;;5.56;93.94;100672.94;4991131;28;8915;-68
2021/12/17 00:59:06;;;;;;;;;65.50;49.50;;;;;5.44;93.70;100671.63;5022646;28;8871;-69
2021/12/17 01:01:35;;;;;;;;;67.00;54.25;;;;;5.68;93.03;100655.25;4991057;28;8890;-68
2021/12/17 01:04:04;;;;;;;;;62.75;48.50;;;;;5.85;92.11;100648.97;4990942;28;8841;-69
2021/12/17 01:06:34;;;;;;;;;62.00;52.00;;;;;5.78;89.50;100643.53;5022763;28;8833;-68
2021/12/17 01:09:04;;;;;;;;;61.50;49.75;;;;;5.88;90.98;100639.56;5022704;28;8890;-69
2021/12/17 01:11:34;;;;;;;;;62.00;50.50;;;;;5.95;89.91;100631.19;5022128;28;8879;-69
2021/12/17 01:14:09;;;;;;;;;56.50;46.50;;;;;6.13;89.93;100629.31;4990104;28;8883;-68
2021/12/17 01:16:58;;;;;;;;;61.75;49.00;;;;;6.33;89.63;100630.00;4991144;28;8868;-68
2021/12/17 01:22:57;;;;;;;;;54.75;44.75;;;;;6.52;86.93;100628.91;5022425;28;8868;-68
2021/12/17 01:35:20;;;;;;;;;54.25;46.25;;;;;6.42;86.57;100624.22;5022137;28;8971;-67
2021/12/17 01:35:21;;;;;;;;;64.50;50.00;;;;;6.55;85.97;100613.44;5007297;28;8871;-69
2021/12/17 01:38:59;;;;;;;;;56.25;48.00;;;;;6.66;84.56;100619.00;5007637;28;8933;-69
2021/12/17 01:43:50;;;;;;;;;53.00;46.75;;;;;5.94;88.11;100632.03;4965059;28;8924;-70
2021/12/17 01:46:22;;;;;;;;;60.50;45.75;;;;;5.84;87.68;100626.53;4952415;28;9054;-68
2021/12/17 01:49:03;;;;;;;;;64.00;47.75;;;;;6.01;87.77;100629.75;4968186;28;8851;-69
2021/12/17 02:00:07;;;;;;;;;59.75;48.00;;;;;6.14;87.31;100615.50;4929360;29;8882;-69
2021/12/17 02:02:46;;;;;;;;;52.75;45.50;;;;;6.30;86.78;100597.94;4894162;29;8861;-68
2021/12/17 02:05:20;;;;;;;;;56.25;46.00;;;;;6.23;86.61;100600.28;4879328;29;9067;-70
2021/12/17 02:07:52;;;;;;;;;52.25;45.50;;;;;6.35;85.78;100597.25;4910473;29;8910;-68
2021/12/17 02:11:06;;;;;;;;;61.75;48.50;;;;;6.52;85.18;100579.69;4894542;29;8947;-67
2021/12/17 02:19:41;;;;;;;;;49.00;44.00;;;;;6.47;85.03;100585.53;4869219;29;9025;-68
2021/12/17 02:33:22;;;;;;;;;49.00;44.00;;;;;6.59;82.50;100553.09;4921038;28;8907;-69
2021/12/17 02:35:50;;;;;;;;;53.00;45.00;;;;;6.61;83.45;100545.38;4963880;28;8984;-69
2021/12/17 02:38:21;;;;;;;;;50.75;44.50;;;;;6.73;83.01;100535.41;4920095;28;8858;-68
2021/12/17 02:46:48;;;;;;;;;54.75;44.25;;;;;6.42;82.96;100530.97;5005856;28;8881;-69
2021/12/17 02:49:19;;;;;;;;;44.00;39.00;;;;;6.58;82.81;100543.59;4974016;28;8850;-68
2021/12/17 02:51:49;;;;;;;;;44.25;39.25;;;;;5.90;84.59;100545.63;5006540;28;9008;-68
2021/12/17 02:54:20;;;;;;;;;51.00;44.50;;;;;6.15;85.16;100539.59;5006189;28;9591;-68
2021/12/17 02:56:49;;;;;;;;;54.25;46.50;;;;;6.12;84.11;100541.19;5006124;28;8863;-68
2021/12/17 02:59:19;;;;;;;;;48.50;43.25;;;;;6.19;83.05;100538.00;4974163;28;8826;-70
2021/12/17 03:01:50;;;;;;;;;45.50;42.50;;;;;6.18;84.19;100531.03;5022597;28;8892;-69
2021/12/17 03:04:20;;;;;;;;;47.00;42.25;;;;;5.90;85.54;100536.97;4975993;28;8874;-69
2021/12/17 03:06:49;;;;;;;;;46.25;42.50;;;;;6.03;84.61;100539.16;4967073;28;8869;-68
2021/12/17 03:09:26;;;;;;;;;38.00;38.00;;;;;6.16;84.75;100533.59;4967164;28;9647;-69
2021/12/17 03:11:55;;;;;;;;;48.75;40.75;;;;;6.23;84.23;100532.06;4985868;28;8849;-68
2021/12/17 03:14:25;;;;;;;;;48.75;43.50;;;;;6.18;83.48;100521.59;4986413;28;8844;-67
2021/12/17 03:17:00;;;;;;;;;45.00;40.75;;;;;6.31;83.62;100532.31;4986403;28;8877;-68
2021/12/17 03:23:26;;;;;;;;;50.75;41.00;;;;;5.85;84.51;100542.84;5002632;28;8860;-68
2021/12/17 03:25:06;;;;;;;;;46.25;41.00;;;;;5.44;87.53;100551.75;5002489;28;8864;-69
2021/12/17 03:27:36;;;;;;;;;54.25;46.25;;;;;5.34;87.78;100550.53;4986226;28;8852;-69
2021/12/17 03:30:06;;;;;;;;;39.60;33.20;;;;;5.50;87.41;100553.66;5002574;28;8855;-69
2021/12/17 03:32:34;;;;;;;;;44.00;37.20;;;;;5.43;87.87;100552.59;4986374;28;9764;-69
2021/12/17 03:35:03;;;;;;;;;41.20;37.40;;;;;5.59;87.50;100536.75;5002325;28;9006;-69
2021/12/17 03:37:32;;;;;;;;;55.00;44.25;;;;;5.60;87.59;100533.38;4987040;28;9638;-68
2021/12/17 03:40:01;;;;;;;;;51.50;42.00;;;;;5.71;86.71;100520.81;4990023;28;8938;-68
2021/12/17 03:42:31;;;;;;;;;41.60;38.20;;;;;5.57;87.50;100514.25;5006494;28;8924;-68
2021/12/17 03:45:01;;;;;;;;;43.00;39.80;;;;;5.75;86.91;100514.91;4991075;28;8864;-68
2021/12/17 03:47:50;;;;;;;;;43.00;41.00;;;;;5.82;86.67;100522.06;5007207;28;8864;-69
2021/12/17 03:50:24;;;;;;;;;41.75;39.50;;;;;5.95;86.15;100512.13;5023641;28;8847;-69
2021/12/17 03:52:53;;;;;;;;;40.80;38.00;;;;;5.76;86.89;100500.25;5006508;28;8895;-68
2021/12/17 03:55:28;;;;;;;;;40.80;36.60;;;;;5.72;86.68;100504.44;5022562;28;8860;-68
2021/12/17 03:58:00;;;;;;;;;39.00;34.80;;;;;5.90;86.19;100505.91;5023619;28;8964;-67
2021/12/17 04:00:30;;;;;;;;;38.80;33.00;;;;;5.90;86.39;100496.44;5023523;28;8922;-68
2021/12/17 04:03:03;;;;;;;;;43.80;39.00;;;;;5.98;85.43;100504.50;5023097;28;8876;-68
2021/12/17 04:05:57;;;;;;;;;41.25;39.75;;;;;5.99;85.26;100501.97;5007245;28;8922;-69
2021/12/17 04:08:45;;;;;;;;;50.00;39.80;;;;;6.02;85.10;100502.03;4994411;28;8892;-69
2021/12/17 04:11:36;;;;;;;;;40.80;35.40;;;;;5.85;86.42;100500.56;5023339;28;8852;-70
2021/12/17 04:14:15;;;;;;;;;45.50;39.00;;;;;5.86;86.20;100484.22;4989829;28;8857;-69
2021/12/17 04:17:02;;;;;;;;;45.25;42.25;;;;;5.86;86.29;100474.75;5023112;28;8877;-70
2021/12/17 04:19:31;;;;;;;;;43.40;39.00;;;;;6.07;85.98;100476.31;5005679;28;9061;-68
2021/12/17 04:22:00;;;;;;;;;43.60;39.40;;;;;6.02;85.64;100463.22;4973026;28;8848;-68
2021/12/17 04:24:28;;;;;;;;;46.00;40.20;;;;;6.15;85.33;100474.84;4992068;28;8966;-69
2021/12/17 04:26:57;;;;;;;;;45.60;42.00;;;;;5.84;86.47;100468.66;5023468;28;8883;-69
2021/12/17 04:29:27;;;;;;;;;106.50;92.00;;;;;5.96;86.85;100465.59;4989075;28;8865;-70
2021/12/17 04:31:57;;;;;;;;;48.75;43.25;;;;;5.75;87.00;100460.56;5022954;28;9777;-70
2021/12/17 04:34:31;;;;;;;;;41.25;39.00;;;;;5.65;87.80;100459.38;4990932;28;8864;-68
2021/12/17 04:37:01;;;;;;;;;45.75;38.75;;;;;5.82;87.84;100465.13;5022844;28;8938;-68
2021/12/17 04:39:47;;;;;;;;;59.25;51.00;;;;;5.75;87.40;100462.28;5022704;28;8840;-67
2021/12/17 04:42:21;;;;;;;;;62.75;51.50;;;;;5.83;87.11;100472.03;5022670;28;8899;-69
2021/12/17 04:44:56;;;;;;;;;56.50;48.25;;;;;5.82;87.84;100464.22;5022396;28;9000;-69
2021/12/17 04:58:32;;;;;;;;;57.25;46.75;;;;;5.58;89.05;100483.28;5007924;28;8973;-68
2021/12/17 05:01:10;;;;;;;;;53.00;43.50;;;;;5.54;89.74;100483.09;5007991;28;8870;-69
2021/12/17 05:03:42;;;;;;;;;54.50;46.75;;;;;5.71;89.48;100484.59;5008068;28;8944;-69
2021/12/17 05:06:18;;;;;;;;;48.75;42.00;;;;;5.56;89.83;100478.88;5007830;28;8838;-69
2021/12/17 05:09:02;;;;;;;;;48.00;42.75;;;;;5.68;89.66;100494.81;5007407;28;8850;-68
2021/12/17 05:18:14;;;;;;;;;52.75;44.75;;;;;5.68;89.67;100496.53;4991712;28;8890;-68
2021/12/17 05:20:15;;;;;;;;;52.75;45.50;;;;;5.42;91.74;100486.16;5007644;28;8882;-69
2021/12/17 05:22:44;;;;;;;;;45.75;42.25;;;;;5.30;91.30;100494.34;5007436;28;8831;-69
2021/12/17 05:25:12;;;;;;;;;52.25;43.50;;;;;5.40;92.13;100485.22;4974929;28;8972;-68
2021/12/17 05:27:41;;;;;;;;;52.50;43.25;;;;;5.25;92.64;100483.88;4990821;28;8866;-69
2021/12/17 05:30:11;;;;;;;;;44.25;39.25;;;;;5.23;93.32;100479.44;4959868;28;8846;-69
2021/12/17 05:32:42;;;;;;;;;91.50;71.50;;;;;5.35;93.82;100477.31;4952746;28;8979;-69
2021/12/17 05:35:11;;;;;;;;;152.75;135.75;;;;;5.53;93.08;100473.59;4988074;28;8868;-68
2021/12/17 05:37:40;;;;;;;;;65.75;51.75;;;;;5.33;93.45;100468.63;4979303;28;11606;-69
2021/12/17 05:40:10;;;;;;;;;48.25;43.25;;;;;5.23;93.19;100467.38;4987628;28;9582;-69
2021/12/17 05:42:42;;;;;;;;;44.75;41.50;;;;;4.68;97.64;100466.22;4987857;28;8825;-69
2021/12/17 05:45:35;;;;;;;;;44.50;39.50;;;;;4.60;100.00;100462.47;5003871;28;8856;-70
2021/12/17 05:48:08;;;;;;;;;40.50;33.25;;;;;4.39;100.00;100466.81;5021384;28;8825;-69
2021/12/17 05:50:44;;;;;;;;;54.75;44.50;;;;;4.41;100.00;100467.78;5021410;28;8872;-69
2021/12/17 05:53:13;;;;;;;;;49.50;45.00;;;;;4.48;100.00;100472.34;5021205;28;8860;-69
2021/12/17 05:55:42;;;;;;;;;50.50;42.75;;;;;4.65;100.00;100466.13;5021183;28;8857;-69
2021/12/17 05:58:11;;;;;;;;;56.00;43.40;;;;;4.77;99.15;100468.28;5021165;28;8874;-68
2021/12/17 06:00:41;;;;;;;;;49.75;41.25;;;;;4.60;100.00;100465.06;5020477;28;8856;-69
2021/12/17 06:03:38;;;;;;;;;55.00;41.75;;;;;4.22;100.00;100463.56;4990195;28;8853;-68
2021/12/17 06:06:10;;;;;;;;;45.50;41.00;;;;;4.18;100.00;100460.00;5006054;28;8857;-68
2021/12/17 06:08:41;;;;;;;;;49.50;43.75;;;;;3.98;100.00;100460.88;5006164;28;8924;-69
2021/12/17 06:11:10;;;;;;;;;41.75;39.50;;;;;3.98;100.00;100453.13;5006144;28;8853;-69
2021/12/17 06:13:40;;;;;;;;;55.50;41.00;;;;;3.94;100.00;100461.59;5006556;28;8853;-70
2021/12/17 06:16:09;;;;;;;;;44.75;42.50;;;;;3.97;100.00;100452.28;5006085;28;9123;-69
2021/12/17 06:18:40;;;;;;;;;48.00;37.75;;;;;4.00;100.00;100451.50;5005751;28;9031;-69
2021/12/17 06:21:10;;;;;;;;;46.75;43.00;;;;;3.96;100.00;100441.88;4989953;28;8902;-68
2021/12/17 06:23:39;;;;;;;;;41.50;39.00;;;;;3.94;100.00;100440.94;5005953;28;8845;-69
2021/12/17 06:26:09;;;;;;;;;44.00;40.25;;;;;4.06;100.00;100436.25;5005995;28;8892;-70
2021/12/17 06:28:41;;;;;;;;;39.00;30.60;;;;;3.99;100.00;100445.47;5034422;28;8959;-69
2021/12/17 06:31:10;;;;;;;;;44.00;37.00;;;;;3.95;100.00;100458.16;5008953;28;8885;-69
2021/12/17 06:33:41;;;;;;;;;39.20;37.20;;;;;3.87;100.00;100469.03;5009159;28;9606;-69
2021/12/17 06:36:10;;;;;;;;;38.00;29.60;;;;;3.86;100.00;100487.06;5025588;28;8977;-69
2021/12/17 06:38:39;;;;;;;;;36.20;33.60;;;;;3.80;100.00;100497.09;5019232;28;8936;-69
2021/12/17 06:41:08;;;;;;;;;42.20;37.40;;;;;3.82;100.00;100496.38;5020134;28;8857;-70
2021/12/17 06:43:41;;;;;;;;;21.00;17.40;;;;;3.85;100.00;100493.91;5019709;28;8868;-69
2021/12/17 06:46:21;;;;;;;;;33.00;29.20;;;;;3.86;100.00;100510.28;5003621;28;8958;-68
2021/12/17 06:48:58;;;;;;;;;42.60;33.60;;;;;3.86;100.00;100480.19;5020140;28;8891;-69
2021/12/17 07:01:00;;;;;;;;;33.40;30.80;;;;;3.92;100.00;100458.06;4988061;28;8880;-68
2021/12/17 07:07:50;;;;;;;;;30.40;25.40;;;;;3.99;98.63;100449.72;4985759;28;8851;-69
2021/12/17 07:10:29;;;;;;;;;28.20;25.60;;;;;4.07;98.58;100453.50;4969998;28;8879;-69
2021/12/17 07:33:07;;;;;;;;;35.20;31.40;;;;;4.13;95.53;100456.34;4970518;28;8866;-70
2021/12/17 07:35:52;;;;;;;;;38.60;33.60;;;;;4.13;95.63;100448.59;4938329;28;8975;-68
2021/12/17 07:38:38;;;;;;;;;32.00;26.60;;;;;4.01;96.31;100450.69;4953676;28;8869;-69
2021/12/17 07:41:28;;;;;;;;;41.60;38.20;;;;;4.05;95.66;100460.31;4970018;28;9011;-69
2021/12/17 07:44:06;;;;;;;;;22.00;14.60;;;;;4.00;95.10;100456.66;4920979;29;8873;-69
2021/12/17 07:46:49;;;;;;;;;40.50;35.25;;;;;3.99;95.56;100453.22;4912425;29;8868;-70
2021/12/17 07:49:17;;;;;;;;;30.40;27.80;;;;;4.02;94.48;100457.59;4928088;29;8877;-69
2021/12/17 07:51:46;;;;;;;;;30.60;29.20;;;;;4.00;95.09;100451.50;4896780;29;8872;-68
2021/12/17 07:54:20;;;;;;;;;46.25;41.50;;;;;3.98;94.89;100451.44;4927612;29;8900;-68
2021/12/17 07:56:50;;;;;;;;;35.00;32.50;;;;;3.97;94.78;100436.78;4911986;29;8906;-70
2021/12/17 07:59:25;;;;;;;;;31.00;27.20;;;;;3.98;95.01;100442.81;4927727;29;8909;-69
2021/12/17 08:01:54;;;;;;;;;33.20;29.20;;;;;4.02;95.42;100449.84;4965165;28;8864;-69
2021/12/17 08:04:26;;;;;;;;;36.80;34.80;;;;;3.96;95.18;100471.13;4966191;28;9040;-69
2021/12/17 08:07:02;;;;;;;;;34.25;32.25;;;;;3.96;95.33;100455.66;4965980;28;8864;-70
2021/12/17 08:09:35;;;;;;;;;42.75;37.75;;;;;4.01;95.18;100448.13;4980818;28;8950;-70
2021/12/17 08:12:10;;;;;;;;;37.40;28.20;;;;;3.97;93.49;100469.44;5005512;28;8915;-68
2021/12/17 08:15:04;;;;;;;;;31.20;25.80;;;;;4.04;92.83;100476.59;5017879;28;8909;-70
2021/12/17 08:17:50;;;;;;;;;29.20;25.00;;;;;4.06;91.95;100475.88;5042157;28;8849;-70
2021/12/17 08:26:14;;;;;;;;;30.00;27.60;;;;;4.16;90.37;100466.78;5011272;28;8886;-69
2021/12/17 08:28:54;;;;;;;;;23.80;21.40;;;;;4.19;89.66;100463.44;5044689;28;8863;-69
2021/12/17 08:31:28;;;;;;;;;23.40;22.40;;;;;4.19;89.27;100477.22;5011425;28;8863;-69
2021/12/17 08:33:57;;;;;;;;;25.40;22.00;;;;;4.26;88.11;100478.38;5004029;28;8912;-69
2021/12/17 08:36:28;;;;;;;;;27.40;23.00;;;;;4.28;87.42;100485.34;4988418;28;8864;-70
2021/12/17 08:39:00;;;;;;;;;23.60;23.60;;;;;4.27;87.28;100456.88;5004378;28;8849;-70
2021/12/17 08:41:52;;;;;;;;;24.20;22.80;;;;;4.29;87.74;100468.13;4988511;28;8903;-68
2021/12/17 08:44:24;;;;;;;;;27.60;25.80;;;;;4.33;87.76;100462.31;4972160;28;8852;-69
2021/12/17 08:47:11;;;;;;;;;25.40;21.20;;;;;4.32;88.17;100459.66;4947494;28;8891;-69
2021/12/17 08:49:41;;;;;;;;;28.00;26.80;;;;;4.36;87.14;100451.19;4940169;28;8852;-69
2021/12/17 08:52:13;;;;;;;;;30.00;24.60;;;;;4.32;87.15;100467.41;4972178;28;8848;-68
2021/12/17 08:54:42;;;;;;;;;35.00;31.80;;;;;4.28;87.93;100461.22;5017170;28;9486;-69
2021/12/17 08:57:11;;;;;;;;;33.00;29.40;;;;;4.26;87.56;100458.59;5007938;28;8854;-70
2021/12/17 08:59:41;;;;;;;;;31.40;30.00;;;;;4.29;87.11;100471.63;5003834;28;8910;-68
2021/12/17 09:02:13;;;;;;;;;42.50;35.00;;;;;4.26;87.26;100471.50;4987893;28;8844;-68
2021/12/17 09:05:09;;;;;;;;;31.60;27.00;;;;;4.25;87.43;100474.00;4987401;28;8876;-68
2021/12/17 09:07:45;;;;;;;;;42.00;36.75;;;;;4.21;87.92;100478.16;5004313;28;8868;-68
2021/12/17 09:10:33;;;;;;;;;34.80;33.60;;;;;4.25;87.11;100469.75;4987864;28;8896;-69
2021/12/17 09:13:02;;;;;;;;;34.00;28.40;;;;;4.25;88.06;100481.75;5038128;28;8893;-70
2021/12/17 09:15:33;;;;;;;;;39.00;33.80;;;;;4.20;88.26;100478.13;5021541;28;8876;-69
2021/12/17 09:18:04;;;;;;;;;41.75;38.75;;;;;4.24;88.36;100480.00;5021483;28;8861;-68
2021/12/17 09:20:40;;;;;;;;;23.80;20.40;;;;;4.20;86.88;100467.81;5021308;28;8860;-71
2021/12/17 09:23:10;;;;;;;;;32.00;24.20;;;;;4.19;86.92;100473.78;5021460;28;8887;-70
2021/12/17 09:25:40;;;;;;;;;24.60;22.00;;;;;4.17;87.45;100467.66;5021764;28;8946;-70
2021/12/17 09:28:17;;;;;;;;;32.60;30.00;;;;;4.20;87.51;100475.53;5004341;28;8868;-69
2021/12/17 09:30:48;;;;;;;;;28.80;27.80;;;;;4.23;86.57;100480.81;4990138;28;8908;-69
2021/12/17 09:33:17;;;;;;;;;22.40;21.20;;;;;4.25;86.15;100468.84;5024163;28;8904;-70
2021/12/17 09:35:46;;;;;;;;;32.20;25.00;;;;;4.27;86.77;100472.38;5008820;28;8854;-68
2021/12/17 09:38:14;;;;;;;;;28.60;27.20;;;;;4.34;86.56;100461.47;5041621;28;8980;-69
2021/12/17 09:40:43;;;;;;;;;24.80;19.60;;;;;4.32;85.24;100454.50;5009225;28;8874;-69
2021/12/17 09:43:14;;;;;;;;;27.00;25.80;;;;;4.37;85.42;100452.97;5040209;28;8854;-69
2021/12/17 09:45:43;;;;;;;;;22.00;17.00;;;;;4.28;84.71;100461.22;5009707;28;8846;-69
2021/12/17 09:48:15;;;;;;;;;17.60;16.80;;;;;4.35;84.88;100457.16;4993645;28;8954;-69
2021/12/17 09:50:43;;;;;;;;;24.40;22.00;;;;;4.43;84.40;100450.63;4989814;28;9591;-70
2021/12/17 09:53:12;;;;;;;;;27.80;23.80;;;;;4.51;84.77;100454.38;4989544;28;8864;-69
2021/12/17 09:55:41;;;;;;;;;24.60;22.20;;;;;4.52;84.76;100445.81;4989989;28;8945;-69
2021/12/17 09:58:10;;;;;;;;;29.80;21.00;;;;;4.45;84.32;100467.06;5020893;28;8879;-69
2021/12/17 10:00:38;;;;;;;;;25.00;24.80;;;;;4.40;84.81;100466.84;4989567;28;8856;-70
2021/12/17 10:03:08;;;;;;;;;21.80;20.20;;;;;4.41;83.35;100449.69;4989646;28;8860;-69
2021/12/17 10:05:40;;;;;;;;;24.80;20.80;;;;;4.41;83.21;100466.06;5003272;28;8869;-68
2021/12/17 10:08:12;;;;;;;;;22.80;21.20;;;;;4.30;83.58;100464.75;4989538;28;8880;-68
2021/12/17 10:10:43;;;;;;;;;25.60;25.00;;;;;4.37;84.21;100459.00;5021160;28;8868;-69
2021/12/17 10:13:14;;;;;;;;;24.00;20.80;;;;;4.36;84.97;100462.41;5020891;28;8872;-70
2021/12/17 10:15:47;;;;;;;;;23.40;22.00;;;;;4.29;84.89;100463.88;5020553;28;8856;-70
2021/12/17 10:18:18;;;;;;;;;27.80;21.60;;;;;4.30;84.95;100457.88;4989060;28;8890;-69
2021/12/17 10:20:58;;;;;;;;;26.80;24.40;;;;;4.31;84.40;100453.63;4989391;28;9543;-69
2021/12/17 10:23:29;;;;;;;;;30.00;25.60;;;;;4.34;84.79;100450.25;5019848;28;8863;-68
2021/12/17 10:26:00;;;;;;;;;25.20;21.80;;;;;4.22;84.62;100461.00;4989048;28;8842;-69
2021/12/17 10:28:31;;;;;;;;;26.20;24.60;;;;;4.24;85.40;100444.72;4988849;28;8883;-68
2021/12/17 10:30:59;;;;;;;;;11.40;7.40;;;;;4.11;85.89;100445.06;4989726;28;8852;-68
2021/12/17 10:33:29;;;;;;;;;24.40;23.00;;;;;4.16;86.60;100429.75;4989288;28;9590;-71
2021/12/17 10:36:03;;;;;;;;;27.60;27.60;;;;;4.14;87.01;100423.66;4988744;28;8864;-69
2021/12/17 10:38:32;;;;;;;;;25.20;25.20;;;;;3.99;88.02;100434.25;4989019;28;9616;-68
2021/12/17 10:41:04;;;;;;;;;40.00;33.80;;;;;4.03;88.03;100431.88;4988641;28;8860;-69
2021/12/17 10:43:37;;;;;;;;;35.20;30.60;;;;;4.02;88.43;100436.97;5002784;28;8892;-69
2021/12/17 10:46:10;;;;;;;;;27.80;24.40;;;;;3.99;88.18;100444.56;4988473;28;8837;-69
2021/12/17 10:48:52;;;;;;;;;32.80;26.80;;;;;4.01;88.63;100437.78;5019971;28;8856;-68
2021/12/17 10:51:43;;;;;;;;;30.40;29.20;;;;;4.07;88.37;100438.03;4988758;28;8868;-68
2021/12/17 10:54:13;;;;;;;;;38.00;33.60;;;;;4.03;88.08;100434.44;5019939;28;8875;-68
2021/12/17 10:56:44;;;;;;;;;29.40;25.20;;;;;3.98;88.26;100429.91;4988293;28;8860;-68
2021/12/17 10:59:14;;;;;;;;;31.80;25.40;;;;;4.01;88.97;100427.47;4988349;28;8903;-69
2021/12/17 11:01:46;;;;;;;;;37.40;33.00;;;;;4.06;89.58;100416.50;4988409;28;8934;-69
2021/12/17 11:04:18;;;;;;;;;36.80;36.00;;;;;4.07;88.66;100415.69;4988609;28;9627;-69
2021/12/17 11:06:52;;;;;;;;;44.40;34.60;;;;;4.05;89.04;100416.44;5002604;28;8872;-70
2021/12/17 11:09:43;;;;;;;;;41.00;35.00;;;;;4.12;88.74;100409.81;4988473;28;8979;-69
2021/12/17 11:12:34;;;;;;;;;34.60;32.20;;;;;4.08;88.63;100419.13;5001941;28;8904;-70
2021/12/17 11:15:18;;;;;;;;;34.20;26.00;;;;;4.02;88.59;100421.47;4966192;28;8862;-69
2021/12/17 11:17:50;;;;;;;;;34.40;29.40;;;;;4.02;89.02;100412.03;4965838;28;8867;-67
2021/12/17 11:20:21;;;;;;;;;27.60;26.40;;;;;4.14;89.16;100414.22;4965944;28;8934;-69
2021/12/17 11:22:54;;;;;;;;;31.00;25.80;;;;;4.03;89.18;100407.75;4966059;28;8940;-69
2021/12/17 11:25:25;;;;;;;;;29.20;27.80;;;;;4.03;89.64;100425.84;4966551;28;8854;-69
2021/12/17 11:27:54;;;;;;;;;20.60;16.40;;;;;4.14;89.93;100427.13;4934286;28;8863;-70
2021/12/17 11:30:25;;;;;;;;;36.75;34.50;;;;;4.16;89.89;100427.19;4966316;28;8870;-70
2021/12/17 11:32:55;;;;;;;;;37.00;32.60;;;;;4.25;90.28;100419.78;4950372;28;8870;-69
2021/12/17 11:35:27;;;;;;;;;41.20;34.00;;;;;4.17;89.19;100424.66;4972589;28;9025;-69
2021/12/17 11:38:01;;;;;;;;;41.20;32.80;;;;;4.21;89.53;100425.66;4985828;28;8857;-69
2021/12/17 11:40:33;;;;;;;;;36.80;29.80;;;;;4.14;89.36;100419.41;4938196;28;8846;-69
2021/12/17 11:43:26;;;;;;;;;29.60;27.60;;;;;4.17;89.71;100410.88;4985984;28;9121;-69
2021/12/17 11:46:00;;;;;;;;;24.80;23.60;;;;;4.27;88.96;100421.63;4927425;28;8850;-67
2021/12/17 11:48:32;;;;;;;;;30.20;26.40;;;;;4.21;89.07;100431.69;4956493;28;8854;-68
2021/12/17 11:51:12;;;;;;;;;29.80;27.00;;;;;4.31;89.05;100427.81;4987322;28;8861;-70
2021/12/17 11:53:54;;;;;;;;;29.60;27.20;;;;;4.33;89.03;100436.47;5019203;28;8857;-69
2021/12/17 11:56:43;;;;;;;;;26.60;25.60;;;;;4.24;88.90;100436.13;4985754;28;8864;-66
2021/12/17 11:59:37;;;;;;;;;36.20;26.80;;;;;4.32;88.80;100428.66;4971658;28;8876;-68
2021/12/17 12:02:11;;;;;;;;;25.00;21.60;;;;;4.34;88.82;100416.69;5006323;28;8907;-70
2021/12/17 12:04:52;;;;;;;;;27.40;22.80;;;;;4.30;88.43;100419.16;4991587;28;9680;-69
2021/12/17 12:07:33;;;;;;;;;34.80;22.40;;;;;4.24;88.58;100426.66;4991334;28;8852;-69
2021/12/17 12:10:24;;;;;;;;;35.00;33.60;;;;;4.27;88.85;100418.16;4991074;28;8837;-69
2021/12/17 12:13:01;;;;;;;;;33.20;31.80;;;;;4.31;88.62;100427.81;5022962;28;8845;-68
2021/12/17 12:15:36;;;;;;;;;35.40;30.20;;;;;4.20;88.87;100418.75;4991489;28;8855;-68
2021/12/17 12:18:22;;;;;;;;;32.40;26.60;;;;;4.29;88.29;100409.66;5022478;28;10093;-68
2021/12/17 12:21:02;;;;;;;;;36.40;35.00;;;;;4.27;89.01;100413.88;4988945;28;8872;-68
2021/12/17 12:23:43;;;;;;;;;35.60;27.40;;;;;4.20;88.83;100416.19;4991244;28;8845;-70
2021/12/17 12:26:17;;;;;;;;;29.80;29.80;;;;;4.23;89.00;100424.00;4991413;28;8864;-68
2021/12/17 12:29:05;;;;;;;;;31.60;28.20;;;;;4.20;89.16;100426.50;5022291;28;8868;-70
2021/12/17 12:32:17;;;;;;;;;31.20;29.40;;;;;4.26;89.23;100425.03;5022015;28;8860;-69
2021/12/17 12:34:46;;;;;;;;;35.80;32.00;;;;;4.26;88.97;100418.97;4942570;28;8879;-70
2021/12/17 12:37:23;;;;;;;;;29.60;27.20;;;;;4.33;88.95;100426.16;5007904;28;8855;-70
2021/12/17 12:40:18;;;;;;;;;43.75;38.25;;;;;4.48;88.71;100425.88;5007788;28;8844;-68
2021/12/17 12:42:53;;;;;;;;;39.00;32.60;;;;;4.45;88.16;100420.56;5007709;28;8906;-69
2021/12/17 12:45:23;;;;;;;;;28.60;25.60;;;;;4.39;88.70;100412.59;4991914;28;8876;-70
2021/12/17 12:47:58;;;;;;;;;41.00;38.60;;;;;4.34;89.00;100409.81;5007957;28;8882;-69
2021/12/17 12:50:33;;;;;;;;;35.60;31.20;;;;;4.26;89.17;100400.91;5007904;28;8840;-68
2021/12/17 12:53:11;;;;;;;;;33.20;27.20;;;;;4.28;89.50;100405.31;5007769;28;8871;-69
2021/12/17 12:55:44;;;;;;;;;38.00;37.00;;;;;4.32;89.77;100403.72;4991465;28;8844;-70
2021/12/17 12:58:18;;;;;;;;;37.75;35.25;;;;;4.37;89.60;100409.97;5024274;28;8864;-68
2021/12/17 13:00:52;;;;;;;;;50.75;43.25;;;;;4.36;89.76;100415.94;5007705;28;8876;-70
2021/12/17 13:03:25;;;;;;;;;38.60;34.40;;;;;4.26;89.81;100418.97;5007873;28;8890;-68
2021/12/17 13:05:55;;;;;;;;;32.40;32.00;;;;;4.26;90.15;100414.69;5009280;28;8850;-68
2021/12/17 13:08:25;;;;;;;;;45.00;38.00;;;;;4.34;89.66;100416.69;5009984;28;8869;-71
2021/12/17 13:10:58;;;;;;;;;45.25;39.75;;;;;4.24;90.33;100411.19;5040455;28;8874;-68
2021/12/17 13:13:34;;;;;;;;;35.50;33.50;;;;;4.28;90.64;100423.38;4995613;28;8840;-70
2021/12/17 13:16:13;;;;;;;;;35.00;30.75;;;;;4.25;90.69;100422.38;4990481;28;8983;-68
2021/12/17 13:21:44;;;;;;;;;43.25;37.50;;;;;4.35;90.41;100421.03;4990274;28;8869;-70
2021/12/17 13:24:16;;;;;;;;;42.25;38.00;;;;;4.29;90.98;100408.75;5022075;28;8861;-70
2021/12/17 13:26:47;;;;;;;;;37.00;31.75;;;;;4.27;91.32;100416.47;4990289;28;8841;-69
2021/12/17 13:29:21;;;;;;;;;43.50;40.00;;;;;4.38;91.20;100419.44;4988441;28;8876;-69
2021/12/17 13:31:52;;;;;;;;;37.00;32.75;;;;;4.40;91.59;100422.09;4990376;28;8988;-69
2021/12/17 13:34:27;;;;;;;;;43.50;39.00;;;;;4.51;90.71;100423.38;4990396;28;8991;-69
2021/12/17 13:37:03;;;;;;;;;33.60;28.60;;;;;4.64;90.11;100422.16;4990399;28;8872;-67
2021/12/17 13:39:34;;;;;;;;;42.60;34.00;;;;;4.67;90.60;100423.16;4989640;28;8864;-69
2021/12/17 13:42:05;;;;;;;;;43.75;35.50;;;;;4.67;90.14;100423.16;5020494;28;8915;-69
2021/12/17 13:44:42;;;;;;;;;29.20;28.40;;;;;4.71;90.58;100428.41;4955278;28;8864;-69
2021/12/17 13:47:34;;;;;;;;;48.00;39.25;;;;;4.72;90.17;100427.59;4989741;28;8880;-68
2021/12/17 13:50:08;;;;;;;;;27.20;25.80;;;;;4.60;90.85;100422.88;4989425;28;8954;-69
2021/12/17 13:52:50;;;;;;;;;34.00;29.00;;;;;4.69;90.48;100426.66;4989164;28;8888;-69
2021/12/17 13:55:23;;;;;;;;;31.80;27.80;;;;;4.61;90.70;100440.09;4989953;28;9015;-68
2021/12/17 13:57:53;;;;;;;;;34.80;31.00;;;;;4.73;90.86;100431.97;4989205;28;8868;-70
2021/12/17 14:00:28;;;;;;;;;32.60;27.00;;;;;4.47;91.40;100437.88;4989185;28;10068;-68
2021/12/17 14:02:58;;;;;;;;;26.60;25.80;;;;;4.51;91.99;100436.28;4989315;28;8872;-69
2021/12/17 14:05:30;;;;;;;;;39.40;35.80;;;;;4.54;92.15;100441.59;4989694;28;8868;-68
2021/12/17 14:08:00;;;;;;;;;38.40;31.00;;;;;4.53;92.21;100426.03;5020404;28;8844;-69
2021/12/17 14:10:31;;;;;;;;;27.20;25.80;;;;;4.47;91.52;100429.25;5005785;28;9060;-69
2021/12/17 14:13:01;;;;;;;;;31.60;29.60;;;;;4.46;91.39;100438.72;5016142;28;9001;-68